Terminal Aerodrome Forecast
Issued by NWS Shreveport, LA

Home | Current Version | Previous Version | Text Only | Print | Product List | Glossary On
Versions: 1 2 3 4 5 6 7 8 9 10 11 12 13 14 15 16 17
000
FTUS44 KSHV 091610 AAA
TAFTXK
TAF AMD
KTXK 091610Z 0916/1012 06006KT P6SM BKN070
      TEMPO 0920/0924 SCT060
     FM100000 12003KT P6SM SKC=

USA.gov is the U.S. government's official web portal to all federal, state and local government web resources and services.